Time,TemperatureF,DewpointF,PressureIn,WindDirection,WindDirectionDegrees,WindSpeedMPH,WindSpeedGustMPH,Humidity,HourlyPrecipIn,Conditions,Clouds,dailyrainin,SolarRadiationWatts/m^2,SoftwareType,DateUTC
2013-06-02 00:11:00,56.0,47.0,-100.00,NNE,22,3.0,5.0,71,-99.99,,,0.00,0.120000,,2013-06-02 07:11:00,
2013-06-02 01:11:00,53.0,45.0,-100.00,NE,54,2.0,4.0,76,-99.99,,,0.00,0.120000,,2013-06-02 08:11:00,
2013-06-02 02:11:00,51.0,45.0,-100.00,ENE,71,3.0,4.0,79,-99.99,,,-99.99,0.120000,,2013-06-02 09:11:00,
2013-06-02 03:12:00,53.0,46.0,-100.00,ENE,59,2.0,2.0,77,-99.99,,,0.00,0.000000,,2013-06-02 10:12:00,
2013-06-02 04:12:00,48.0,44.0,-100.00,ESE,110,2.0,3.0,86,-99.99,,,0.00,0.000000,,2013-06-02 11:12:00,
2013-06-02 05:11:00,50.0,45.0,-100.00,SE,130,1.0,10.0,83,-99.99,,,0.00,0.000000,,2013-06-02 12:11:00,
2013-06-02 06:11:00,48.0,45.0,-100.00,ESE,121,2.0,3.0,89,-99.99,,,0.00,0.810000,,2013-06-02 13:11:00,
2013-06-02 07:11:00,50.0,45.0,-100.00,SE,126,1.0,2.0,83,-99.99,,,-99.99,89.139999,,2013-06-02 14:11:00,
2013-06-02 08:11:00,54.0,46.0,-100.00,NNW,328,3.0,5.0,76,-99.99,,,-99.99,228.720001,,2013-06-02 15:11:00,
2013-06-02 09:13:00,57.0,47.0,-100.00,NNE,27,4.0,8.0,69,-99.99,,,-99.99,366.329987,,2013-06-02 16:13:00,
2013-06-02 10:12:00,61.0,43.0,-100.00,North,0,11.0,16.0,51,-99.99,,,-99.99,636.070007,,2013-06-02 17:12:00,
2013-06-02 12:11:00,64.0,41.0,-100.00,NNW,328,11.0,17.0,43,-99.99,,,0.00,914.650024,,2013-06-02 19:11:00,
2013-06-02 13:11:00,65.0,39.0,-100.00,NNW,340,8.0,16.0,38,-99.99,,,-99.99,936.729980,,2013-06-02 20:11:00,
2013-06-02 14:11:00,67.0,37.0,-100.00,NNW,334,7.0,16.0,32,-99.99,,,0.00,1007.630005,,2013-06-02 21:11:00,
2013-06-02 15:12:00,69.0,37.0,-100.00,North,4,8.0,15.0,31,-99.99,,,0.00,923.950012,,2013-06-02 22:12:00,
2013-06-02 16:12:00,70.0,37.0,-100.00,North,349,12.0,17.0,29,-99.99,,,-99.99,896.059998,,2013-06-02 23:12:00,
2013-06-02 17:11:00,70.0,35.0,-100.00,NNW,347,13.0,20.0,27,-99.99,,,-99.99,767.869995,,2013-06-03 00:11:00,
2013-06-02 18:11:00,67.0,39.0,-100.00,NNW,341,19.0,25.0,35,-99.99,,,-99.99,594.000000,,2013-06-03 01:11:00,
2013-06-02 19:12:00,65.0,39.0,-100.00,NNW,347,19.0,26.0,38,-99.99,,,-99.99,404.790009,,2013-06-03 02:12:00,
2013-06-02 20:12:00,62.0,39.0,-100.00,NNW,337,19.0,26.0,42,-99.99,,,-99.99,214.190002,,2013-06-03 03:12:00,
2013-06-02 21:12:00,59.0,40.0,-100.00,NNW,334,13.0,22.0,49,-99.99,,,-99.99,47.880001,,2013-06-03 04:12:00,
2013-06-02 22:12:00,55.0,42.0,-100.00,NNW,335,8.0,12.0,60,-99.99,,,0.00,0.460000,,2013-06-03 05:12:00,
2013-06-02 23:12:00,54.0,42.0,-100.00,NNW,340,10.0,13.0,65,-99.99,,,0.00,0.120000,,2013-06-03 06:12:00,